sensor_id;sensor_type;location;lat;lon;timestamp;pressure;altitude;pressure_sealevel;temperature;humidity
44103;BME280;29769;42.178;24.742;2023-05-03T00:02:24;100216.63;;;11.48;78.16
44103;BME280;29769;42.178;24.742;2023-05-03T00:05:09;100216.59;;;11.52;79.03
44103;BME280;29769;42.178;24.742;2023-05-03T00:07:58;100214.72;;;11.59;78.69
44103;BME280;29769;42.178;24.742;2023-05-03T00:10:43;100206.78;;;11.64;80.25
44103;BME280;29769;42.178;24.742;2023-05-03T00:13:28;100202.44;;;11.63;78.49
44103;BME280;29769;42.178;24.742;2023-05-03T00:16:12;100190.03;;;11.68;77.86
44103;BME280;29769;42.178;24.742;2023-05-03T00:18:57;100183.00;;;11.68;77.77
44103;BME280;29769;42.178;24.742;2023-05-03T00:21:41;100197.94;;;11.71;78.18
44103;BME280;29769;42.178;24.742;2023-05-03T00:24:26;100201.44;;;11.73;77.51
44103;BME280;29769;42.178;24.742;2023-05-03T00:27:10;100198.94;;;11.59;79.76
44103;BME280;29769;42.178;24.742;2023-05-03T00:29:55;100204.25;;;11.54;80.57
44103;BME280;29769;42.178;24.742;2023-05-03T00:32:39;100195.56;;;11.46;81.57
44103;BME280;29769;42.178;24.742;2023-05-03T00:35:25;100187.63;;;11.49;80.90
44103;BME280;29769;42.178;24.742;2023-05-03T00:38:10;100181.50;;;11.47;82.71
44103;BME280;29769;42.178;24.742;2023-05-03T00:40:56;100178.06;;;11.41;82.67
44103;BME280;29769;42.178;24.742;2023-05-03T00:43:40;100178.09;;;11.39;82.83
44103;BME280;29769;42.178;24.742;2023-05-03T00:46:25;100183.38;;;11.39;82.61
44103;BME280;29769;42.178;24.742;2023-05-03T00:49:09;100174.59;;;11.37;81.74
44103;BME280;29769;42.178;24.742;2023-05-03T00:51:54;100176.38;;;11.35;82.27
44103;BME280;29769;42.178;24.742;2023-05-03T00:54:42;100182.53;;;11.34;81.95
44103;BME280;29769;42.178;24.742;2023-05-03T00:57:27;100186.00;;;11.36;81.82
44103;BME280;29769;42.178;24.742;2023-05-03T01:00:12;100185.16;;;11.33;82.19
44103;BME280;29769;42.178;24.742;2023-05-03T01:02:57;100178.19;;;11.30;82.10
44103;BME280;29769;42.178;24.742;2023-05-03T01:08:31;100180.88;;;11.24;82.27
44103;BME280;29769;42.178;24.742;2023-05-03T01:11:23;100176.44;;;11.29;81.90
44103;BME280;29769;42.178;24.742;2023-05-03T01:14:17;100172.94;;;11.27;80.39
44103;BME280;29769;42.178;24.742;2023-05-03T01:17:15;100179.94;;;11.30;82.05
44103;BME280;29769;42.178;24.742;2023-05-03T01:20:04;100189.59;;;11.31;80.64
44103;BME280;29769;42.178;24.742;2023-05-03T01:25:42;100180.84;;;11.27;79.85
44103;BME280;29769;42.178;24.742;2023-05-03T01:28:27;100179.91;;;11.34;78.85
44103;BME280;29769;42.178;24.742;2023-05-03T01:31:12;100161.47;;;11.31;78.32
44103;BME280;29769;42.178;24.742;2023-05-03T01:36:59;100156.31;;;11.22;82.98
44103;BME280;29769;42.178;24.742;2023-05-03T01:42:31;100165.97;;;11.23;83.90
44103;BME280;29769;42.178;24.742;2023-05-03T01:45:17;100171.22;;;11.23;83.46
44103;BME280;29769;42.178;24.742;2023-05-03T01:48:02;100170.34;;;11.23;83.22
44103;BME280;29769;42.178;24.742;2023-05-03T01:50:52;100170.38;;;11.21;82.25
44103;BME280;29769;42.178;24.742;2023-05-03T01:53:36;100160.69;;;11.26;82.11
44103;BME280;29769;42.178;24.742;2023-05-03T01:56:22;100153.63;;;11.28;81.02
44103;BME280;29769;42.178;24.742;2023-05-03T01:59:06;100144.00;;;11.26;82.34
44103;BME280;29769;42.178;24.742;2023-05-03T02:01:51;100142.25;;;11.25;82.00
44103;BME280;29769;42.178;24.742;2023-05-03T02:04:35;100140.53;;;11.21;82.53
44103;BME280;29769;42.178;24.742;2023-05-03T02:07:20;100137.97;;;11.14;83.98
44103;BME280;29769;42.178;24.742;2023-05-03T02:10:05;100136.22;;;11.15;84.63
44103;BME280;29769;42.178;24.742;2023-05-03T02:12:50;100143.25;;;11.13;84.33
44103;BME280;29769;42.178;24.742;2023-05-03T02:15:35;100151.19;;;11.11;83.64
44103;BME280;29769;42.178;24.742;2023-05-03T02:18:20;100143.22;;;11.14;84.69
44103;BME280;29769;42.178;24.742;2023-05-03T02:21:05;100143.28;;;11.10;85.85
44103;BME280;29769;42.178;24.742;2023-05-03T02:23:51;100145.94;;;11.07;86.61
44103;BME280;29769;42.178;24.742;2023-05-03T02:26:38;100153.81;;;11.10;84.54
44103;BME280;29769;42.178;24.742;2023-05-03T02:29:23;100163.50;;;11.08;85.34
44103;BME280;29769;42.178;24.742;2023-05-03T02:32:07;100155.66;;;11.02;85.72
44103;BME280;29769;42.178;24.742;2023-05-03T02:34:52;100148.69;;;10.98;86.10
44103;BME280;29769;42.178;24.742;2023-05-03T02:37:39;100153.09;;;10.93;87.32
44103;BME280;29769;42.178;24.742;2023-05-03T02:40:28;100152.22;;;10.92;86.98
44103;BME280;29769;42.178;24.742;2023-05-03T02:43:14;100156.63;;;10.90;86.62
44103;BME280;29769;42.178;24.742;2023-05-03T02:45:59;100148.69;;;10.95;87.31
44103;BME280;29769;42.178;24.742;2023-05-03T02:48:44;100142.56;;;10.93;87.77
44103;BME280;29769;42.178;24.742;2023-05-03T02:51:29;100143.41;;;10.95;87.45
44103;BME280;29769;42.178;24.742;2023-05-03T02:54:14;100141.72;;;10.91;88.42
44103;BME280;29769;42.178;24.742;2023-05-03T02:56:59;100136.44;;;10.91;88.85
44103;BME280;29769;42.178;24.742;2023-05-03T02:59:45;100149.63;;;10.89;89.92
44103;BME280;29769;42.178;24.742;2023-05-03T03:02:30;100169.81;;;10.89;89.89
44103;BME280;29769;42.178;24.742;2023-05-03T03:05:15;100162.81;;;10.89;90.51
44103;BME280;29769;42.178;24.742;2023-05-03T03:08:04;100182.13;;;10.84;92.79
44103;BME280;29769;42.178;24.742;2023-05-03T03:10:49;100190.94;;;10.80;95.67
44103;BME280;29769;42.178;24.742;2023-05-03T03:13:34;100184.84;;;10.76;97.84
44103;BME280;29769;42.178;24.742;2023-05-03T03:16:23;100189.31;;;10.65;100.00
44103;BME280;29769;42.178;24.742;2023-05-03T03:19:07;100192.81;;;10.65;100.00
44103;BME280;29769;42.178;24.742;2023-05-03T03:21:52;100192.88;;;10.56;100.00
44103;BME280;29769;42.178;24.742;2023-05-03T03:24:36;100192.00;;;10.56;100.00
44103;BME280;29769;42.178;24.742;2023-05-03T03:27:22;100187.63;;;10.55;100.00
44103;BME280;29769;42.178;24.742;2023-05-03T03:30:07;100186.75;;;10.54;100.00
44103;BME280;29769;42.178;24.742;2023-05-03T03:32:57;100187.69;;;10.46;100.00
44103;BME280;29769;42.178;24.742;2023-05-03T03:35:49;100194.69;;;10.47;100.00
44103;BME280;29769;42.178;24.742;2023-05-03T03:38:36;100206.03;;;10.55;100.00
44103;BME280;29769;42.178;24.742;2023-05-03T03:41:25;100214.00;;;10.46;100.00
44103;BME280;29769;42.178;24.742;2023-05-03T03:44:11;100214.03;;;10.44;100.00
44103;BME280;29769;42.178;24.742;2023-05-03T03:46:56;100223.66;;;10.44;100.00
44103;BME280;29769;42.178;24.742;2023-05-03T03:49:41;100228.03;;;10.40;100.00
44103;BME280;29769;42.178;24.742;2023-05-03T03:52:26;100239.47;;;10.36;100.00
44103;BME280;29769;42.178;24.742;2023-05-03T03:55:11;100230.78;;;10.27;100.00
44103;BME280;29769;42.178;24.742;2023-05-03T03:57:56;100225.50;;;10.30;100.00
44103;BME280;29769;42.178;24.742;2023-05-03T04:00:43;100239.53;;;10.29;100.00
44103;BME280;29769;42.178;24.742;2023-05-03T04:03:32;100254.41;;;10.28;100.00
44103;BME280;29769;42.178;24.742;2023-05-03T04:06:17;100256.19;;;10.29;100.00
44103;BME280;29769;42.178;24.742;2023-05-03T04:09:02;100256.22;;;10.20;100.00
44103;BME280;29769;42.178;24.742;2023-05-03T04:11:50;100243.94;;;10.23;100.00
44103;BME280;29769;42.178;24.742;2023-05-03T04:14:35;100265.81;;;10.27;100.00
44103;BME280;29769;42.178;24.742;2023-05-03T04:17:19;100272.84;;;10.25;100.00
44103;BME280;29769;42.178;24.742;2023-05-03T04:20:05;100270.22;;;10.25;100.00
44103;BME280;29769;42.178;24.742;2023-05-03T04:22:54;100271.97;;;10.31;100.00
44103;BME280;29769;42.178;24.742;2023-05-03T04:25:42;100291.16;;;10.40;100.00
44103;BME280;29769;42.178;24.742;2023-05-03T04:28:31;100299.91;;;10.47;100.00
44103;BME280;29769;42.178;24.742;2023-05-03T04:31:16;100300.75;;;10.52;100.00
44103;BME280;29769;42.178;24.742;2023-05-03T04:34:03;100313.94;;;10.46;100.00
44103;BME280;29769;42.178;24.742;2023-05-03T04:36:48;100325.31;;;10.49;100.00
44103;BME280;29769;42.178;24.742;2023-05-03T04:39:33;100330.56;;;10.49;100.00
44103;BME280;29769;42.178;24.742;2023-05-03T04:42:19;100351.59;;;10.57;100.00
44103;BME280;29769;42.178;24.742;2023-05-03T04:45:04;100361.25;;;10.56;100.00
44103;BME280;29769;42.178;24.742;2023-05-03T04:47:56;100363.88;;;10.56;100.00
44103;BME280;29769;42.178;24.742;2023-05-03T04:50:40;100358.59;;;10.55;100.00
44103;BME280;29769;42.178;24.742;2023-05-03T04:53:27;100358.63;;;10.56;100.00
44103;BME280;29769;42.178;24.742;2023-05-03T04:56:26;100361.31;;;10.43;100.00
44103;BME280;29769;42.178;24.742;2023-05-03T04:59:19;100362.22;;;10.28;100.00
44103;BME280;29769;42.178;24.742;2023-05-03T05:02:04;100374.53;;;10.20;100.00
44103;BME280;29769;42.178;24.742;2023-05-03T05:04:49;100373.66;;;10.18;100.00
44103;BME280;29769;42.178;24.742;2023-05-03T05:07:34;100377.16;;;10.11;100.00
44103;BME280;29769;42.178;24.742;2023-05-03T05:10:19;100383.28;;;10.10;100.00
44103;BME280;29769;42.178;24.742;2023-05-03T05:13:04;100385.94;;;10.07;100.00
44103;BME280;29769;42.178;24.742;2023-05-03T05:15:49;100391.19;;;10.13;100.00
44103;BME280;29769;42.178;24.742;2023-05-03T05:18:34;100396.44;;;10.13;100.00
44103;BME280;29769;42.178;24.742;2023-05-03T05:21:21;100398.19;;;10.05;100.00
44103;BME280;29769;42.178;24.742;2023-05-03T05:24:05;100390.31;;;10.08;100.00
44103;BME280;29769;42.178;24.742;2023-05-03T05:26:50;100393.81;;;10.08;100.00
44103;BME280;29769;42.178;24.742;2023-05-03T05:29:36;100385.03;;;10.09;100.00
44103;BME280;29769;42.178;24.742;2023-05-03T05:32:20;100375.41;;;10.19;100.00
44103;BME280;29769;42.178;24.742;2023-05-03T05:35:06;100374.53;;;10.18;100.00
44103;BME280;29769;42.178;24.742;2023-05-03T05:37:51;100375.41;;;10.02;100.00
44103;BME280;29769;42.178;24.742;2023-05-03T05:40:36;100370.16;;;10.08;100.00
44103;BME280;29769;42.178;24.742;2023-05-03T05:43:20;100363.13;;;10.15;100.00
44103;BME280;29769;42.178;24.742;2023-05-03T05:46:06;100368.41;;;10.21;100.00
44103;BME280;29769;42.178;24.742;2023-05-03T05:48:52;100359.59;;;10.33;100.00
44103;BME280;29769;42.178;24.742;2023-05-03T05:51:37;100368.34;;;10.38;100.00
44103;BME280;29769;42.178;24.742;2023-05-03T05:54:23;100365.66;;;10.45;100.00
44103;BME280;29769;42.178;24.742;2023-05-03T05:57:08;100363.88;;;10.58;100.00
44103;BME280;29769;42.178;24.742;2023-05-03T05:59:53;100353.25;;;10.75;100.00
44103;BME280;29769;42.178;24.742;2023-05-03T06:02:38;100354.94;;;10.88;100.00
44103;BME280;29769;42.178;24.742;2023-05-03T06:05:23;100351.34;;;11.02;100.00
44103;BME280;29769;42.178;24.742;2023-05-03T06:08:09;100352.94;;;11.26;100.00
44103;BME280;29769;42.178;24.742;2023-05-03T06:10:53;100350.09;;;11.49;100.00
44103;BME280;29769;42.178;24.742;2023-05-03T06:13:39;100347.28;;;11.72;100.00
44103;BME280;29769;42.178;24.742;2023-05-03T06:16:25;100345.38;;;11.89;100.00
44103;BME280;29769;42.178;24.742;2023-05-03T06:19:10;100338.91;;;12.14;100.00
44103;BME280;29769;42.178;24.742;2023-05-03T06:21:54;100351.03;;;12.32;100.00
44103;BME280;29769;42.178;24.742;2023-05-03T06:24:39;100350.97;;;12.38;100.00
44103;BME280;29769;42.178;24.742;2023-05-03T06:27:24;100362.50;;;12.29;100.00
44103;BME280;29769;42.178;24.742;2023-05-03T06:30:10;100362.78;;;12.03;100.00
44103;BME280;29769;42.178;24.742;2023-05-03T06:32:54;100355.66;;;12.12;100.00
44103;BME280;29769;42.178;24.742;2023-05-03T06:35:39;100349.16;;;12.41;100.00
44103;BME280;29769;42.178;24.742;2023-05-03T06:38:24;100341.88;;;12.62;100.00
44103;BME280;29769;42.178;24.742;2023-05-03T06:41:09;100334.63;;;12.76;100.00
44103;BME280;29769;42.178;24.742;2023-05-03T06:43:54;100333.72;;;12.77;100.00
44103;BME280;29769;42.178;24.742;2023-05-03T06:46:41;100340.91;;;13.27;100.00
44103;BME280;29769;42.178;24.742;2023-05-03T06:49:26;100342.78;;;13.74;100.00
44103;BME280;29769;42.178;24.742;2023-05-03T06:52:10;100331.78;;;13.97;100.00
44103;BME280;29769;42.178;24.742;2023-05-03T06:54:56;100326.72;;;14.29;100.00
44103;BME280;29769;42.178;24.742;2023-05-03T06:57:40;100327.09;;;14.54;100.00
44103;BME280;29769;42.178;24.742;2023-05-03T07:00:26;100319.63;;;14.73;100.00
44103;BME280;29769;42.178;24.742;2023-05-03T07:03:10;100319.22;;;15.28;100.00
44103;BME280;29769;42.178;24.742;2023-05-03T07:05:55;100315.50;;;16.04;100.00
44103;BME280;29769;42.178;24.742;2023-05-03T07:08:40;100314.81;;;16.59;100.00
44103;BME280;29769;42.178;24.742;2023-05-03T07:11:25;100317.91;;;17.03;100.00
44103;BME280;29769;42.178;24.742;2023-05-03T07:14:09;100316.34;;;17.23;100.00
44103;BME280;29769;42.178;24.742;2023-05-03T07:16:54;100320.25;;;17.40;100.00
44103;BME280;29769;42.178;24.742;2023-05-03T07:19:39;100310.06;;;17.78;100.00
44103;BME280;29769;42.178;24.742;2023-05-03T07:22:23;100312.59;;;17.55;100.00
44103;BME280;29769;42.178;24.742;2023-05-03T07:25:08;100302.41;;;17.69;100.00
44103;BME280;29769;42.178;24.742;2023-05-03T07:27:53;100310.59;;;18.13;100.00
44103;BME280;29769;42.178;24.742;2023-05-03T07:30:37;100332.50;;;18.44;100.00
44103;BME280;29769;42.178;24.742;2023-05-03T07:33:22;100324.28;;;19.40;95.42
44103;BME280;29769;42.178;24.742;2023-05-03T07:36:07;100321.50;;;20.26;85.00
44103;BME280;29769;42.178;24.742;2023-05-03T07:38:51;100309.47;;;21.65;80.08
44103;BME280;29769;42.178;24.742;2023-05-03T07:41:36;100311.78;;;21.37;73.41
44103;BME280;29769;42.178;24.742;2023-05-03T07:44:20;100301.59;;;21.80;71.03
44103;BME280;29769;42.178;24.742;2023-05-03T07:47:05;100285.88;;;23.35;63.57
44103;BME280;29769;42.178;24.742;2023-05-03T07:49:50;100289.19;;;22.29;65.36
44103;BME280;29769;42.178;24.742;2023-05-03T07:52:35;100289.91;;;21.81;64.18
44103;BME280;29769;42.178;24.742;2023-05-03T07:55:20;100300.41;;;22.20;63.79
44103;BME280;29769;42.178;24.742;2023-05-03T07:58:05;100301.59;;;22.62;63.91
44103;BME280;29769;42.178;24.742;2023-05-03T08:00:50;100298.13;;;22.45;59.57
44103;BME280;29769;42.178;24.742;2023-05-03T08:03:34;100290.09;;;22.93;60.82
44103;BME280;29769;42.178;24.742;2023-05-03T08:06:19;100263.09;;;24.44;52.95
44103;BME280;29769;42.178;24.742;2023-05-03T08:09:03;100261.47;;;24.42;52.81
44103;BME280;29769;42.178;24.742;2023-05-03T08:11:48;100258.88;;;23.38;52.21
44103;BME280;29769;42.178;24.742;2023-05-03T08:14:33;100269.88;;;22.22;57.97
44103;BME280;29769;42.178;24.742;2023-05-03T08:17:18;100260.84;;;23.50;54.60
44103;BME280;29769;42.178;24.742;2023-05-03T08:20:02;100262.91;;;23.61;55.17
44103;BME280;29769;42.178;24.742;2023-05-03T08:22:49;100276.22;;;22.70;55.86
44103;BME280;29769;42.178;24.742;2023-05-03T08:25:33;100287.78;;;22.22;57.19
44103;BME280;29769;42.178;24.742;2023-05-03T08:28:20;100272.03;;;21.29;61.91
44103;BME280;29769;42.178;24.742;2023-05-03T08:31:04;100254.53;;;22.26;59.04
44103;BME280;29769;42.178;24.742;2023-05-03T08:33:51;100261.91;;;22.69;57.15
44103;BME280;29769;42.178;24.742;2023-05-03T08:36:35;100268.19;;;22.70;55.80
44103;BME280;29769;42.178;24.742;2023-05-03T08:39:21;100254.97;;;23.73;53.71
44103;BME280;29769;42.178;24.742;2023-05-03T08:42:07;100260.16;;;23.90;51.87
44103;BME280;29769;42.178;24.742;2023-05-03T08:44:52;100246.19;;;25.38;48.51
44103;BME280;29769;42.178;24.742;2023-05-03T08:47:38;100242.53;;;25.39;45.37
44103;BME280;29769;42.178;24.742;2023-05-03T08:50:26;100234.78;;;27.10;40.85
44103;BME280;29769;42.178;24.742;2023-05-03T08:53:11;100228.84;;;28.99;39.67
44103;BME280;29769;42.178;24.742;2023-05-03T08:55:55;100228.72;;;29.43;36.80
44103;BME280;29769;42.178;24.742;2023-05-03T08:58:40;100227.78;;;28.79;37.23
44103;BME280;29769;42.178;24.742;2023-05-03T09:01:25;100203.16;;;27.93;37.30
44103;BME280;29769;42.178;24.742;2023-05-03T09:04:10;100212.88;;;28.62;37.93
44103;BME280;29769;42.178;24.742;2023-05-03T09:07:05;100208.38;;;28.29;38.29
44103;BME280;29769;42.178;24.742;2023-05-03T09:09:50;100206.47;;;29.60;35.37
44103;BME280;29769;42.178;24.742;2023-05-03T09:12:36;100215.38;;;29.72;34.41
44103;BME280;29769;42.178;24.742;2023-05-03T09:15:24;100217.16;;;29.41;35.42
44103;BME280;29769;42.178;24.742;2023-05-03T09:18:16;100218.38;;;29.05;36.79
44103;BME280;29769;42.178;24.742;2023-05-03T09:21:01;100177.13;;;28.48;36.71
44103;BME280;29769;42.178;24.742;2023-05-03T09:23:46;100211.88;;;27.85;36.59
44103;BME280;29769;42.178;24.742;2023-05-03T09:26:32;100208.75;;;28.25;37.19
44103;BME280;29769;42.178;24.742;2023-05-03T09:29:30;100206.91;;;29.45;36.03
44103;BME280;29769;42.178;24.742;2023-05-03T09:32:15;100198.84;;;29.75;34.36
44103;BME280;29769;42.178;24.742;2023-05-03T09:35:09;100188.75;;;29.25;35.08
44103;BME280;29769;42.178;24.742;2023-05-03T09:37:54;100181.69;;;28.47;35.58
44103;BME280;29769;42.178;24.742;2023-05-03T09:40:45;100193.53;;;27.08;38.87
44103;BME280;29769;42.178;24.742;2023-05-03T09:43:31;100214.25;;;23.51;47.74
44103;BME280;29769;42.178;24.742;2023-05-03T09:46:16;100218.28;;;23.28;50.50
44103;BME280;29769;42.178;24.742;2023-05-03T09:49:00;100220.59;;;23.64;49.56
44103;BME280;29769;42.178;24.742;2023-05-03T09:51:45;100210.78;;;24.07;47.77
44103;BME280;29769;42.178;24.742;2023-05-03T09:54:30;100204.50;;;23.78;49.56
44103;BME280;29769;42.178;24.742;2023-05-03T09:57:15;100200.19;;;24.61;46.42
44103;BME280;29769;42.178;24.742;2023-05-03T09:59:59;100201.00;;;25.16;44.73
44103;BME280;29769;42.178;24.742;2023-05-03T10:02:44;100211.25;;;24.00;47.05
44103;BME280;29769;42.178;24.742;2023-05-03T10:05:30;100211.22;;;23.85;48.45
44103;BME280;29769;42.178;24.742;2023-05-03T10:11:09;100225.13;;;25.31;45.52
44103;BME280;29769;42.178;24.742;2023-05-03T10:13:57;100225.41;;;24.87;44.66
44103;BME280;29769;42.178;24.742;2023-05-03T10:16:43;100238.91;;;21.84;54.58
44103;BME280;29769;42.178;24.742;2023-05-03T10:22:17;100233.19;;;20.85;59.62
44103;BME280;29769;42.178;24.742;2023-05-03T10:36:04;100196.47;;;19.95;67.53
44103;BME280;29769;42.178;24.742;2023-05-03T10:38:49;100186.03;;;20.09;66.13
44103;BME280;29769;42.178;24.742;2023-05-03T10:41:36;100177.94;;;19.92;67.77
44103;BME280;29769;42.178;24.742;2023-05-03T10:44:54;100181.44;;;20.86;63.10
44103;BME280;29769;42.178;24.742;2023-05-03T10:47:31;100180.78;;;21.68;60.41
44103;BME280;29769;42.178;24.742;2023-05-03T10:53:00;100173.00;;;21.64;58.85
44103;BME280;29769;42.178;24.742;2023-05-03T10:56:01;100169.97;;;22.20;56.33
44103;BME280;29769;42.178;24.742;2023-05-03T10:58:51;100163.56;;;21.90;58.65
44103;BME280;29769;42.178;24.742;2023-05-03T11:01:39;100165.16;;;21.77;58.48
44103;BME280;29769;42.178;24.742;2023-05-03T11:04:29;100178.19;;;20.62;65.41
44103;BME280;29769;42.178;24.742;2023-05-03T11:07:18;100163.69;;;19.73;69.19
44103;BME280;29769;42.178;24.742;2023-05-03T11:10:16;100167.94;;;19.36;72.51
44103;BME280;29769;42.178;24.742;2023-05-03T11:13:00;100153.16;;;19.29;75.10
44103;BME280;29769;42.178;24.742;2023-05-03T11:15:44;100157.22;;;19.38;74.18
44103;BME280;29769;42.178;24.742;2023-05-03T11:18:29;100163.91;;;19.07;77.45
44103;BME280;29769;42.178;24.742;2023-05-03T11:21:14;100157.69;;;19.07;77.44
44103;BME280;29769;42.178;24.742;2023-05-03T11:24:00;100159.31;;;18.01;89.42
44103;BME280;29769;42.178;24.742;2023-05-03T11:26:45;100167.28;;;18.01;92.61
44103;BME280;29769;42.178;24.742;2023-05-03T11:29:29;100162.91;;;17.52;98.48
44103;BME280;29769;42.178;24.742;2023-05-03T11:32:16;100165.09;;;16.89;100.00
44103;BME280;29769;42.178;24.742;2023-05-03T11:35:02;100161.44;;;16.92;100.00
44103;BME280;29769;42.178;24.742;2023-05-03T11:37:48;100154.50;;;16.88;100.00
44103;BME280;29769;42.178;24.742;2023-05-03T11:40:33;100150.09;;;16.87;100.00
44103;BME280;29769;42.178;24.742;2023-05-03T11:43:18;100139.16;;;16.70;100.00
44103;BME280;29769;42.178;24.742;2023-05-03T11:46:02;100131.66;;;16.82;100.00
44103;BME280;29769;42.178;24.742;2023-05-03T11:48:47;100135.75;;;16.93;100.00
44103;BME280;29769;42.178;24.742;2023-05-03T11:51:32;100118.34;;;17.09;100.00
44103;BME280;29769;42.178;24.742;2023-05-03T11:54:18;100113.88;;;17.09;80.16
44103;BME280;29769;42.178;24.742;2023-05-03T11:57:09;100112.91;;;16.87;78.34
44103;BME280;29769;42.178;24.742;2023-05-03T11:59:55;100111.59;;;16.74;79.51
44103;BME280;29769;42.178;24.742;2023-05-03T12:02:57;100125.63;;;16.50;81.98
44103;BME280;29769;42.178;24.742;2023-05-03T12:05:42;100112.50;;;16.17;85.32
44103;BME280;29769;42.178;24.742;2023-05-03T12:08:27;100120.34;;;15.94;89.38
44103;BME280;29769;42.178;24.742;2023-05-03T12:11:11;100116.81;;;15.93;93.99
44103;BME280;29769;42.178;24.742;2023-05-03T12:14:00;100110.56;;;15.94;94.98
44103;BME280;29769;42.178;24.742;2023-05-03T12:16:48;100105.03;;;15.73;98.93
44103;BME280;29769;42.178;24.742;2023-05-03T12:19:34;100102.94;;;15.84;100.00
44103;BME280;29769;42.178;24.742;2023-05-03T12:22:19;100106.41;;;15.86;100.00
44103;BME280;29769;42.178;24.742;2023-05-03T12:25:04;100118.81;;;15.85;100.00
44103;BME280;29769;42.178;24.742;2023-05-03T12:27:51;100112.44;;;15.91;100.00
44103;BME280;29769;42.178;24.742;2023-05-03T12:30:36;100115.41;;;16.10;100.00
44103;BME280;29769;42.178;24.742;2023-05-03T12:33:21;100102.63;;;16.22;100.00
44103;BME280;29769;42.178;24.742;2023-05-03T12:36:05;100099.16;;;16.20;98.41
44103;BME280;29769;42.178;24.742;2023-05-03T12:38:50;100092.44;;;16.36;98.11
44103;BME280;29769;42.178;24.742;2023-05-03T12:41:35;100083.56;;;16.37;97.34
44103;BME280;29769;42.178;24.742;2023-05-03T12:44:20;100080.44;;;16.51;94.94
44103;BME280;29769;42.178;24.742;2023-05-03T12:47:04;100078.22;;;16.65;92.97
44103;BME280;29769;42.178;24.742;2023-05-03T12:49:49;100074.41;;;16.46;86.95
44103;BME280;29769;42.178;24.742;2023-05-03T12:52:34;100070.47;;;16.59;88.64
44103;BME280;29769;42.178;24.742;2023-05-03T12:55:20;100055.19;;;16.66;87.56
44103;BME280;29769;42.178;24.742;2023-05-03T12:58:04;100058.06;;;16.60;86.52
44103;BME280;29769;42.178;24.742;2023-05-03T13:00:49;100052.06;;;16.79;86.91
44103;BME280;29769;42.178;24.742;2023-05-03T13:03:34;100047.69;;;17.03;86.39
44103;BME280;29769;42.178;24.742;2023-05-03T13:06:19;100052.34;;;16.97;87.38
44103;BME280;29769;42.178;24.742;2023-05-03T13:09:03;100046.34;;;16.90;86.88
44103;BME280;29769;42.178;24.742;2023-05-03T13:11:51;100047.47;;;16.84;88.54
44103;BME280;29769;42.178;24.742;2023-05-03T13:14:35;100048.69;;;16.74;93.17
44103;BME280;29769;42.178;24.742;2023-05-03T13:17:21;100053.72;;;16.82;93.64
44103;BME280;29769;42.178;24.742;2023-05-03T13:20:06;100044.06;;;17.04;94.63
44103;BME280;29769;42.178;24.742;2023-05-03T13:22:51;100037.19;;;17.23;95.50
44103;BME280;29769;42.178;24.742;2023-05-03T13:25:35;100024.22;;;17.62;94.57
44103;BME280;29769;42.178;24.742;2023-05-03T13:28:23;100015.88;;;17.71;89.68
44103;BME280;29769;42.178;24.742;2023-05-03T13:31:09;100011.06;;;17.34;86.81
44103;BME280;29769;42.178;24.742;2023-05-03T13:33:54;100009.47;;;17.06;89.17
44103;BME280;29769;42.178;24.742;2023-05-03T13:36:40;100028.53;;;16.69;90.42
44103;BME280;29769;42.178;24.742;2023-05-03T13:39:25;100032.66;;;16.51;93.97
44103;BME280;29769;42.178;24.742;2023-05-03T13:42:10;100020.59;;;16.41;97.40
44103;BME280;29769;42.178;24.742;2023-05-03T13:44:54;100014.16;;;16.22;93.32
44103;BME280;29769;42.178;24.742;2023-05-03T13:47:39;100005.81;;;16.08;94.63
44103;BME280;29769;42.178;24.742;2023-05-03T13:50:27;99991.09;;;15.97;97.82
44103;BME280;29769;42.178;24.742;2023-05-03T13:53:12;99982.25;;;15.97;99.97
44103;BME280;29769;42.178;24.742;2023-05-03T13:55:56;99987.59;;;15.95;100.00
44103;BME280;29769;42.178;24.742;2023-05-03T13:58:41;99994.09;;;16.13;100.00
44103;BME280;29769;42.178;24.742;2023-05-03T14:01:26;99998.22;;;16.22;100.00
44103;BME280;29769;42.178;24.742;2023-05-03T14:04:11;100002.03;;;16.15;100.00
44103;BME280;29769;42.178;24.742;2023-05-03T14:06:55;99994.78;;;16.20;100.00
44103;BME280;29769;42.178;24.742;2023-05-03T14:09:42;99995.88;;;16.13;100.00
44103;BME280;29769;42.178;24.742;2023-05-03T14:12:27;99978.44;;;16.32;100.00
44103;BME280;29769;42.178;24.742;2023-05-03T14:15:12;99976.63;;;16.59;100.00
44103;BME280;29769;42.178;24.742;2023-05-03T14:17:56;99972.75;;;16.94;100.00
44103;BME280;29769;42.178;24.742;2023-05-03T14:20:41;99977.41;;;17.10;100.00
44103;BME280;29769;42.178;24.742;2023-05-03T14:23:26;99971.78;;;17.41;100.00
44103;BME280;29769;42.178;24.742;2023-05-03T14:26:11;99971.44;;;17.50;100.00
44103;BME280;29769;42.178;24.742;2023-05-03T14:28:57;99965.19;;;17.74;100.00
44103;BME280;29769;42.178;24.742;2023-05-03T14:31:42;99977.75;;;17.93;100.00
44103;BME280;29769;42.178;24.742;2023-05-03T14:34:26;99985.94;;;17.88;99.68
44103;BME280;29769;42.178;24.742;2023-05-03T14:37:12;99980.09;;;18.00;100.00
44103;BME280;29769;42.178;24.742;2023-05-03T14:39:56;99974.41;;;17.88;100.00
44103;BME280;29769;42.178;24.742;2023-05-03T14:42:41;99965.22;;;17.95;100.00